< < Back
Terminal Aerodrome Forecast


Current Version              Previous Versions:   1  2  3  4  5  6  7  8  9  

Terminal Aerodrome Forecast

894
FTUS42 KTAE 252152 AAB
TAFABY
TAF AMD
KABY 252152Z 2522/2618 24005KT P6SM VCTS SCT050CB
      TEMPO 2522/2523 02015G25KT 6SM -TSRA BKN050CB
     FM252300 VRB03KT P6SM BKN250
     FM261500 03005KT P6SM SCT050 BKN250=



Latest METAR

216
SAUS70 KWBC 260600 RRG
MTRABY
METAR KABY 260553Z AUTO 16003KT 8SM CLR 23/22 A3009 RMK AO2 SLP186 60000
T02330222 10261 20233 51005


USA.gov is the U.S. government's official web portal to all federal, state and local government web resources and services.